Time;durP1;ratioP1;P1;durP2;ratioP2;P2;SDS_P1;SDS_P2;PMS_P1;PMS_P2;Temp;Humidity;BMP_temperature;BMP_pressure;BME280_temperature;BME280_humidity;BME280_pressure;Samples;Min_cycle;Max_cycle;Signal;HPM_P1;HPM_P2
2024/04/23 05:09:17;;;;;;;;;;;;;;;7.80;100.00;100793.92;1771308;79;20493;-74
2024/04/23 05:11:44;;;;;;;;;;;;;;;7.96;100.00;100795.58;1800786;77;20112;-78
2024/04/23 05:14:23;;;;;;;;;;;;;;;8.12;100.00;100801.92;1819053;78;20198;-73
2024/04/23 05:16:52;;;;;;;;;;;;;;;8.30;100.00;100805.65;1805738;78;20461;-76
2024/04/23 05:19:23;;;;;;;;;;;;;;;8.52;100.00;100803.17;1818019;77;20137;-78
2024/04/23 05:22:13;;;;;;;;;;;;;;;8.76;100.00;100807.50;1788602;77;20199;-77
2024/04/23 05:24:34;;;;;;;;;;;;;;;9.00;100.00;100810.48;1747322;79;20175;-80
2024/04/23 05:27:02;;;;;;;;;;;;;;;9.25;100.00;100812.14;1735037;80;20173;-78
2024/04/23 05:29:31;;;;;;;;;;;;;;;9.43;100.00;100813.19;1813539;77;20084;-76
2024/04/23 05:34:48;;;;;;;;;;;;;;;9.69;100.00;100821.65;1798361;78;20136;-79
2024/04/23 05:37:14;;;;;;;;;;;;;;;9.76;100.00;100824.85;1828801;77;20149;-79
2024/04/23 05:39:42;;;;;;;;;;;;;;;9.80;100.00;100827.73;1816409;77;20100;-83
2024/04/23 05:42:13;;;;;;;;;;;;;;;9.83;100.00;100826.30;1821905;77;20611;-74
2024/04/23 05:44:57;;;;;;;;;;;;;;;9.83;100.00;100827.61;1795486;78;20145;-80
2024/04/23 05:47:26;;;;;;;;;;;;;;;9.84;100.00;100837.10;1800713;79;20178;-75
2024/04/23 05:50:32;;;;;;;;;;;;;;;9.86;100.00;100840.49;1803298;77;20094;-78
2024/04/23 05:53:58;;;;;;;;;;;;;;;9.89;100.00;100846.03;1797752;78;20389;-76
2024/04/23 05:57:04;;;;;;;;;;;;;;;9.95;100.00;100841.88;1843000;77;20174;-74
2024/04/23 05:59:36;;;;;;;;;;;;;;;9.99;100.00;100846.90;1810215;77;20169;-75
2024/04/23 06:02:05;;;;;;;;;;;;;;;10.09;100.00;100845.20;1806609;77;20173;-77
2024/04/23 06:04:32;;;;;;;;;;;;;;;10.18;100.00;100850.03;1793411;79;20417;-78
2024/04/23 06:07:00;;;;;;;;;;;;;;;10.25;100.00;100846.30;1806950;78;20100;-77
2024/04/23 06:09:28;;;;;;;;;;;;;;;10.29;100.00;100854.37;1815318;77;20123;-77
2024/04/23 06:11:55;;;;;;;;;;;;;;;10.34;100.00;100858.94;1794252;77;20710;-78
2024/04/23 06:14:22;;;;;;;;;;;;;;;10.36;100.00;100857.11;1818919;77;20131;-79
2024/04/23 06:17:20;;;;;;;;;;;;;;;10.42;100.00;100858.13;1804722;77;20576;-81
2024/04/23 06:19:50;;;;;;;;;;;;;;;10.66;100.00;100861.00;1805471;77;20466;-77
2024/04/23 06:22:18;;;;;;;;;;;;;;;11.15;100.00;100861.90;1804763;77;20138;-76
2024/04/23 06:24:47;;;;;;;;;;;;;;;11.46;100.00;100863.94;1801116;79;20174;-80
2024/04/23 06:27:16;;;;;;;;;;;;;;;11.63;100.00;100862.66;1813462;77;20174;-79
2024/04/23 06:29:45;;;;;;;;;;;;;;;11.74;100.00;100865.62;1793477;79;20106;-82
2024/04/23 06:32:14;;;;;;;;;;;;;;;11.89;100.00;100858.41;1798023;79;20165;-77
2024/04/23 06:34:42;;;;;;;;;;;;;;;12.03;100.00;100856.41;1795224;77;20125;-79
2024/04/23 06:37:10;;;;;;;;;;;;;;;12.20;100.00;100863.41;1807717;78;20118;-71
2024/04/23 06:39:37;;;;;;;;;;;;;;;12.29;100.00;100871.64;1802557;77;20141;-79
2024/04/23 06:42:04;;;;;;;;;;;;;;;12.33;100.00;100871.03;1801754;79;20128;-79
2024/04/23 06:44:31;;;;;;;;;;;;;;;12.26;100.00;100866.57;1824541;77;20111;-77
2024/04/23 06:46:57;;;;;;;;;;;;;;;12.14;100.00;100863.72;1815217;78;20121;-77
2024/04/23 06:49:24;;;;;;;;;;;;;;;12.10;100.00;100868.70;1810831;77;20136;-75
2024/04/23 06:51:51;;;;;;;;;;;;;;;12.14;100.00;100873.70;1795006;78;20106;-82
2024/04/23 06:54:17;;;;;;;;;;;;;;;12.17;100.00;100874.01;1809165;78;20165;-81
2024/04/23 06:56:43;;;;;;;;;;;;;;;12.04;100.00;100875.06;1817783;77;20092;-75
2024/04/23 06:59:12;;;;;;;;;;;;;;;11.96;100.00;100871.55;1812108;77;20093;-81
2024/04/23 07:01:38;;;;;;;;;;;;;;;11.90;100.00;100875.75;1819437;77;20100;-75
2024/04/23 07:04:05;;;;;;;;;;;;;;;11.89;100.00;100879.28;1803185;77;20392;-75
2024/04/23 07:06:32;;;;;;;;;;;;;;;11.95;100.00;100872.47;1809853;77;20388;-78
2024/04/23 07:08:58;;;;;;;;;;;;;;;12.09;100.00;100878.75;1814422;78;20124;-81
2024/04/23 07:11:25;;;;;;;;;;;;;;;12.26;100.00;100877.02;1782230;79;20110;-75
2024/04/23 07:13:51;;;;;;;;;;;;;;;12.42;100.00;100886.67;1822475;77;20137;-81
2024/04/23 07:16:23;;;;;;;;;;;;;;;12.53;100.00;100876.54;1813409;78;20154;-79
2024/04/23 07:18:50;;;;;;;;;;;;;;;12.59;100.00;100877.54;1811473;78;20111;-78
2024/04/23 07:21:17;;;;;;;;;;;;;;;12.63;100.00;100880.38;1799085;78;20181;-73
2024/04/23 07:23:53;;;;;;;;;;;;;;;12.69;100.00;100874.38;1822010;78;20152;-78
2024/04/23 07:26:18;;;;;;;;;;;;;;;12.73;100.00;100885.53;1799360;78;20567;-76
2024/04/23 07:28:45;;;;;;;;;;;;;;;12.74;100.00;100877.23;1824825;77;20110;-78
2024/04/23 07:31:14;;;;;;;;;;;;;;;12.84;100.00;100873.19;1805136;78;20106;-80
2024/04/23 07:33:46;;;;;;;;;;;;;;;13.00;100.00;100866.23;1810872;79;20098;-78
2024/04/23 07:36:20;;;;;;;;;;;;;;;13.15;100.00;100868.05;1816021;77;20123;-87
2024/04/23 07:38:46;;;;;;;;;;;;;;;13.16;100.00;100860.63;1810549;78;20179;-80
2024/04/23 07:41:14;;;;;;;;;;;;;;;13.21;100.00;100857.73;1791499;79;20137;-86
2024/04/23 07:43:41;;;;;;;;;;;;;;;13.30;100.00;100859.86;1790274;78;20213;-78
2024/04/23 07:46:07;;;;;;;;;;;;;;;13.51;100.00;100857.85;1800931;79;20380;-76
2024/04/23 07:48:34;;;;;;;;;;;;;;;13.83;100.00;100862.12;1806972;79;20144;-70
2024/04/23 07:51:07;;;;;;;;;;;;;;;14.06;100.00;100856.03;1819191;77;20503;-77
2024/04/23 07:53:37;;;;;;;;;;;;;;;14.29;100.00;100858.17;1813796;77;20104;-76
2024/04/23 07:56:07;;;;;;;;;;;;;;;14.60;100.00;100859.86;1810695;78;20150;-76
2024/04/23 07:58:41;;;;;;;;;;;;;;;14.75;99.92;100859.41;1805188;79;20158;-79
2024/04/23 08:01:10;;;;;;;;;;;;;;;14.81;99.32;100859.86;1750815;80;20402;-82
2024/04/23 08:03:48;;;;;;;;;;;;;;;14.83;99.19;100865.86;1767981;80;20104;-78
2024/04/23 08:06:20;;;;;;;;;;;;;;;14.86;97.36;100863.52;1741264;80;20102;-78
2024/04/23 08:08:46;;;;;;;;;;;;;;;14.94;96.75;100863.91;1777690;80;20105;-73
2024/04/23 08:11:24;;;;;;;;;;;;;;;15.03;94.65;100859.88;1759143;80;20108;-78
2024/04/23 08:13:58;;;;;;;;;;;;;;;15.05;94.97;100858.84;1768428;80;20124;-76
2024/04/23 08:16:24;;;;;;;;;;;;;;;15.10;83.43;100852.86;1769472;79;20117;-76
2024/04/23 08:18:51;;;;;;;;;;;;;;;15.13;81.70;100854.45;1777088;79;20125;-78
2024/04/23 08:21:17;;;;;;;;;;;;;;;15.22;80.54;100856.47;1751397;79;20115;-75
2024/04/23 08:23:43;;;;;;;;;;;;;;;15.33;80.55;100858.80;1764088;80;20175;-74
2024/04/23 08:26:14;;;;;;;;;;;;;;;15.49;79.25;100859.16;1767385;80;20128;-77
2024/04/23 08:28:38;;;;;;;;;;;;;;;15.53;78.52;100842.28;1783232;80;20552;-75
2024/04/23 08:31:04;;;;;;;;;;;;;;;15.54;78.47;100854.00;1785738;80;20403;-74
2024/04/23 08:33:32;;;;;;;;;;;;;;;15.54;77.36;100847.91;1783564;80;20102;-78
2024/04/23 08:35:58;;;;;;;;;;;;;;;15.49;76.30;100848.20;1784584;80;20219;-78
2024/04/23 08:38:27;;;;;;;;;;;;;;;15.40;77.09;100843.52;1771757;80;20446;-76
2024/04/23 08:40:55;;;;;;;;;;;;;;;15.37;76.21;100848.12;1755015;80;20133;-77
2024/04/23 08:43:26;;;;;;;;;;;;;;;15.26;75.94;100837.82;1774944;79;20153;-78
2024/04/23 08:45:54;;;;;;;;;;;;;;;15.17;75.93;100834.48;1765202;80;20105;-73
2024/04/23 08:48:20;;;;;;;;;;;;;;;15.06;75.14;100839.55;1774721;80;20100;-78
2024/04/23 08:51:07;;;;;;;;;;;;;;;14.90;74.29;100842.73;1757316;79;20109;-75
2024/04/23 08:53:52;;;;;;;;;;;;;;;14.82;76.47;100839.73;1773639;79;20209;-77
2024/04/23 08:56:31;;;;;;;;;;;;;;;14.95;78.24;100836.73;1751391;80;20411;-77
2024/04/23 08:58:58;;;;;;;;;;;;;;;15.09;78.00;100836.74;1774663;80;20116;-76
2024/04/23 09:01:33;;;;;;;;;;;;;;;15.21;77.28;100835.95;1746856;80;20206;-77
2024/04/23 09:04:15;;;;;;;;;;;;;;;15.32;76.04;100832.66;1780247;79;20198;-75
2024/04/23 09:06:50;;;;;;;;;;;;;;;15.41;76.12;100830.77;1750480;81;20170;-77
2024/04/23 09:09:25;;;;;;;;;;;;;;;15.47;75.63;100830.39;1774536;80;20428;-78
2024/04/23 09:11:56;;;;;;;;;;;;;;;15.52;77.08;100824.84;1772460;79;20409;-78
2024/04/23 09:14:23;;;;;;;;;;;;;;;15.53;75.67;100822.59;1755448;79;20157;-78
2024/04/23 09:16:50;;;;;;;;;;;;;;;15.48;75.76;100822.89;1778624;80;20121;-79
2024/04/23 09:19:19;;;;;;;;;;;;;;;15.44;77.03;100825.80;1767778;80;20130;-77
2024/04/23 09:21:45;;;;;;;;;;;;;;;15.39;75.72;100828.72;1769833;79;20374;-76
2024/04/23 09:24:13;;;;;;;;;;;;;;;15.32;75.88;100829.57;1782266;79;20097;-73
2024/04/23 09:26:40;;;;;;;;;;;;;;;15.27;75.97;100826.39;1750315;79;20169;-81
2024/04/23 09:29:06;;;;;;;;;;;;;;;15.24;75.84;100825.27;1764824;79;20111;-76
2024/04/23 09:31:36;;;;;;;;;;;;;;;15.26;76.15;100821.23;1763840;80;20375;-77
2024/04/23 09:34:04;;;;;;;;;;;;;;;15.28;75.88;100826.77;1749778;80;20457;-74
2024/04/23 09:36:33;;;;;;;;;;;;;;;15.28;76.35;100824.61;1759060;80;20438;-77
2024/04/23 09:38:59;;;;;;;;;;;;;;;15.31;77.59;100830.51;1774688;80;20133;-71
2024/04/23 09:41:26;;;;;;;;;;;;;;;15.39;77.99;100822.63;1780394;79;20126;-73
2024/04/23 09:43:56;;;;;;;;;;;;;;;15.47;76.64;100821.67;1768522;79;20130;-80
2024/04/23 09:46:23;;;;;;;;;;;;;;;15.51;77.54;100824.47;1770282;79;20108;-76
2024/04/23 09:48:50;;;;;;;;;;;;;;;15.56;77.98;100831.16;1782457;79;20107;-79
2024/04/23 09:51:20;;;;;;;;;;;;;;;15.66;76.71;100828.75;1766733;79;20109;-76
2024/04/23 09:53:49;;;;;;;;;;;;;;;15.74;75.97;100827.80;1774296;79;20429;-74
2024/04/23 09:56:19;;;;;;;;;;;;;;;15.76;76.18;100835.09;1777767;80;20270;-82
2024/04/23 09:58:48;;;;;;;;;;;;;;;15.74;75.29;100836.14;1771813;80;20149;-80
2024/04/23 10:01:18;;;;;;;;;;;;;;;15.74;74.46;100834.36;1768137;80;20148;-78
2024/04/23 10:03:44;;;;;;;;;;;;;;;15.76;74.18;100830.31;1787122;79;20119;-75
2024/04/23 10:06:12;;;;;;;;;;;;;;;15.83;74.94;100828.98;1783106;79;20165;-75
2024/04/23 10:09:05;;;;;;;;;;;;;;;15.94;74.26;100827.81;1778659;79;20100;-80
2024/04/23 10:11:41;;;;;;;;;;;;;;;15.97;72.96;100835.02;1760665;80;20112;-75
2024/04/23 10:14:11;;;;;;;;;;;;;;;15.96;73.67;100837.28;1766027;79;20246;-75
2024/04/23 10:16:40;;;;;;;;;;;;;;;15.99;72.84;100835.73;1778184;79;20192;-79
2024/04/23 10:19:08;;;;;;;;;;;;;;;16.03;72.36;100830.28;1768131;79;20129;-76
2024/04/23 10:21:39;;;;;;;;;;;;;;;16.09;73.53;100839.92;1779767;79;20121;-76
2024/04/23 10:24:09;;;;;;;;;;;;;;;16.23;73.35;100845.11;1779085;79;20192;-77
2024/04/23 10:26:37;;;;;;;;;;;;;;;16.40;72.28;100845.27;1762126;79;20168;-75
2024/04/23 10:29:03;;;;;;;;;;;;;;;16.57;72.27;100848.92;1763836;81;20181;-76
2024/04/23 10:31:31;;;;;;;;;;;;;;;16.71;71.56;100850.66;1775366;80;20105;-77
2024/04/23 10:33:57;;;;;;;;;;;;;;;16.79;70.83;100854.08;1782324;80;20103;-77
2024/04/23 10:36:25;;;;;;;;;;;;;;;16.84;71.02;100853.26;1766592;80;20381;-81
2024/04/23 10:38:56;;;;;;;;;;;;;;;16.88;70.52;100857.36;1745162;81;20176;-76
2024/04/23 10:41:28;;;;;;;;;;;;;;;16.94;70.13;100851.20;1743456;81;20156;-77
2024/04/23 10:44:01;;;;;;;;;;;;;;;16.98;69.73;100852.68;1771553;79;20236;-78
2024/04/23 10:46:24;;;;;;;;;;;;;;;16.99;69.36;100849.09;1771132;80;20160;-78
2024/04/23 10:48:57;;;;;;;;;;;;;;;16.96;69.38;100855.05;1803275;79;20591;-79
2024/04/23 10:51:25;;;;;;;;;;;;;;;16.95;69.70;100857.31;1777175;79;20137;-77
2024/04/23 10:53:54;;;;;;;;;;;;;;;16.96;69.31;100855.05;1780692;79;20104;-75
2024/04/23 10:56:24;;;;;;;;;;;;;;;16.91;68.28;100857.16;1741579;80;20149;-78
2024/04/23 10:59:11;;;;;;;;;;;;;;;16.76;66.75;100853.81;1758955;79;20168;-77
2024/04/23 11:01:51;;;;;;;;;;;;;;;16.58;68.43;100849.30;1787742;79;20195;-79
2024/04/23 11:04:20;;;;;;;;;;;;;;;16.52;69.86;100854.97;1767015;79;20415;-78
2024/04/23 11:06:50;;;;;;;;;;;;;;;16.51;70.37;100857.70;1753053;79;20428;-76
2024/04/23 11:09:27;;;;;;;;;;;;;;;16.49;71.14;100857.80;1752474;80;20215;-80
2024/04/23 11:11:57;;;;;;;;;;;;;;;16.41;70.97;100857.47;1809803;77;20373;-76
2024/04/23 11:14:36;;;;;;;;;;;;;;;16.38;71.24;100858.17;1807501;78;20113;-74
2024/04/23 11:17:03;;;;;;;;;;;;;;;16.37;71.17;100856.49;1814481;77;20124;-75
2024/04/23 11:19:40;;;;;;;;;;;;;;;16.36;70.77;100862.22;1819921;77;20095;-78
2024/04/23 11:22:13;;;;;;;;;;;;;;;16.35;70.60;100860.54;1811899;77;20106;-78
2024/04/23 11:27:31;;;;;;;;;;;;;;;16.34;70.39;100860.17;1814423;77;20365;-76
2024/04/23 11:29:57;;;;;;;;;;;;;;;16.33;70.05;100849.28;1805069;78;20105;-79
2024/04/23 11:32:24;;;;;;;;;;;;;;;16.34;70.75;100852.28;1801101;79;20154;-72
2024/04/23 11:34:52;;;;;;;;;;;;;;;16.34;69.38;100843.08;1814843;79;20147;-75
2024/04/23 11:37:23;;;;;;;;;;;;;;;16.26;70.59;100839.65;1812583;78;20866;-74
2024/04/23 11:39:57;;;;;;;;;;;;;;;16.26;71.10;100838.80;1815648;77;20174;-74
2024/04/23 11:42:27;;;;;;;;;;;;;;;16.25;70.32;100835.81;1789514;78;20219;-75
2024/04/23 11:44:58;;;;;;;;;;;;;;;16.17;70.38;100834.16;1778907;78;20159;-73
2024/04/23 11:47:25;;;;;;;;;;;;;;;16.07;70.32;100828.66;1814356;77;20115;-76
2024/04/23 11:49:51;;;;;;;;;;;;;;;15.99;71.19;100829.67;1810780;77;20126;-77
2024/04/23 11:52:18;;;;;;;;;;;;;;;15.88;71.07;100831.68;1801069;77;20180;-75
2024/04/23 11:54:45;;;;;;;;;;;;;;;15.73;70.98;100833.98;1793181;78;20141;-76
2024/04/23 11:57:11;;;;;;;;;;;;;;;15.58;70.95;100834.99;1814891;78;20399;-75
2024/04/23 11:59:42;;;;;;;;;;;;;;;15.41;70.95;100824.69;1798881;78;20129;-77
2024/04/23 12:02:11;;;;;;;;;;;;;;;15.28;71.85;100831.16;1820350;77;20094;-76
2024/04/23 12:04:39;;;;;;;;;;;;;;;15.18;72.80;100828.30;1831062;77;20152;-77
2024/04/23 12:07:05;;;;;;;;;;;;;;;15.14;74.13;100825.97;1810334;77;20109;-78
2024/04/23 12:09:31;;;;;;;;;;;;;;;15.12;75.06;100829.15;1803633;78;20145;-80
2024/04/23 12:12:01;;;;;;;;;;;;;;;15.14;75.82;100825.50;1809658;77;20132;-79
2024/04/23 12:14:28;;;;;;;;;;;;;;;15.17;75.49;100827.93;1803721;77;20101;-79
2024/04/23 12:16:55;;;;;;;;;;;;;;;15.16;74.77;100827.55;1808944;79;20158;-80
2024/04/23 12:19:21;;;;;;;;;;;;;;;15.11;73.88;100826.16;1806076;77;20113;-81
2024/04/23 12:21:48;;;;;;;;;;;;;;;15.09;73.78;100824.94;1812184;77;20102;-77
2024/04/23 12:24:15;;;;;;;;;;;;;;;15.06;73.60;100818.56;1792536;77;20150;-79
2024/04/23 12:26:41;;;;;;;;;;;;;;;15.04;74.50;100818.28;1809286;77;20570;-80
2024/04/23 12:29:08;;;;;;;;;;;;;;;14.99;74.01;100816.79;1773560;78;20404;-76
2024/04/23 12:31:34;;;;;;;;;;;;;;;14.93;73.60;100807.98;1800108;78;20142;-79
2024/04/23 12:34:01;;;;;;;;;;;;;;;14.85;74.25;100805.45;1784942;78;20652;-79
2024/04/23 12:36:28;;;;;;;;;;;;;;;14.79;75.16;100803.23;1810009;78;20121;-80
2024/04/23 12:38:55;;;;;;;;;;;;;;;14.73;76.31;100801.83;1813068;77;20164;-76
2024/04/23 12:41:22;;;;;;;;;;;;;;;14.71;74.06;100797.61;1839315;77;20120;-76
2024/04/23 12:43:49;;;;;;;;;;;;;;;14.72;73.96;100800.61;1825461;77;20188;-78
2024/04/23 12:46:16;;;;;;;;;;;;;;;14.73;72.88;100790.50;1808204;79;20380;-80
2024/04/23 12:48:43;;;;;;;;;;;;;;;14.71;72.98;100786.66;1804823;77;20135;-77
2024/04/23 12:51:09;;;;;;;;;;;;;;;14.71;73.36;100786.66;1818368;77;20137;-77
2024/04/23 12:53:36;;;;;;;;;;;;;;;14.80;73.75;100778.67;1817871;77;20114;-74
2024/04/23 12:56:04;;;;;;;;;;;;;;;14.95;73.73;100782.51;1818988;77;20154;-81
2024/04/23 12:58:33;;;;;;;;;;;;;;;15.13;73.95;100773.97;1805752;78;20491;-77
2024/04/23 13:01:01;;;;;;;;;;;;;;;15.29;73.10;100771.19;1798172;78;20833;-74
2024/04/23 13:03:27;;;;;;;;;;;;;;;15.42;73.50;100770.78;1811250;77;20102;-76
2024/04/23 13:05:54;;;;;;;;;;;;;;;15.53;72.95;100764.84;1807866;77;20101;-79
2024/04/23 13:08:20;;;;;;;;;;;;;;;15.59;73.27;100771.89;1803551;78;21112;-79
2024/04/23 13:10:47;;;;;;;;;;;;;;;15.63;72.67;100765.94;1802679;77;20169;-83
2024/04/23 13:13:13;;;;;;;;;;;;;;;15.64;72.58;100762.37;1807006;77;20171;-79
2024/04/23 13:15:43;;;;;;;;;;;;;;;15.60;70.71;100760.42;1800513;77;20168;-79
2024/04/23 13:18:10;;;;;;;;;;;;;;;15.55;70.96;100753.78;1820930;77;20388;-73
2024/04/23 13:20:38;;;;;;;;;;;;;;;15.51;71.97;100752.30;1760091;80;20137;-88
2024/04/23 13:23:09;;;;;;;;;;;;;;;15.46;71.89;100751.75;1712937;81;20157;-78
2024/04/23 13:26:00;;;;;;;;;;;;;;;15.39;71.47;100743.89;1746325;81;20109;-72
2024/04/23 13:28:30;;;;;;;;;;;;;;;15.31;71.59;100742.60;1777612;80;20096;-76
2024/04/23 13:30:56;;;;;;;;;;;;;;;15.22;70.66;100742.34;1781446;80;20155;-80
2024/04/23 13:33:26;;;;;;;;;;;;;;;15.14;71.04;100734.98;1758447;80;20107;-80
2024/04/23 13:35:52;;;;;;;;;;;;;;;15.08;71.25;100734.06;1750561;80;20120;-76
2024/04/23 13:38:20;;;;;;;;;;;;;;;15.01;71.22;100730.14;1747118;81;20103;-74
2024/04/23 13:40:49;;;;;;;;;;;;;;;14.95;70.85;100731.37;1734052;80;20157;-79
2024/04/23 13:43:17;;;;;;;;;;;;;;;14.90;70.50;100732.59;1745738;81;20476;-79
2024/04/23 13:45:43;;;;;;;;;;;;;;;14.84;71.05;100729.89;1747972;80;20182;-80
2024/04/23 13:48:10;;;;;;;;;;;;;;;14.82;71.38;100728.30;1735858;80;20930;-79
2024/04/23 13:50:36;;;;;;;;;;;;;;;14.81;72.08;100735.31;1759833;80;20666;-81
2024/04/23 13:53:03;;;;;;;;;;;;;;;14.83;71.43;100725.58;1741716;81;20131;-77
2024/04/23 13:55:38;;;;;;;;;;;;;;;14.86;70.72;100732.41;1738703;82;20132;-82
2024/04/23 13:58:08;;;;;;;;;;;;;;;14.88;70.93;100726.61;1781578;78;20153;-78
